Specktown, Pennsylvania
Current Conditions -  °F | °C
As of 11:53 PM on Sunday 19 Oct 2014 (Local Time) from KSEG Reporting Station
Clear Clear  
Wind Chill: 37°   Ceiling: Unl
Heat Index: 37°   Visibility: 10mi
Dew Point: 34°   Wind: 3mph
Humidity: 89%   Direction: 320°NW
Pressure: 30.09"   Gusts: NA
Location:  40.6198°N, 76.7286°W
Report Text: KSEG 200353Z AUTO 32003KT 10SM CLR 03/01 A3009 RMK AO2 SLP190 T00280011
Loading
Personal Weather Stations






























Interactive Weather Map
Tropical Storm Tracking
New forecast layout! Learn more

10-Day Weather Forecast

Advertisements
Track Severe Weather on mobile